sensor_id;sensor_type;location;lat;lon;timestamp;temperature;humidity
34135;DHT22;20410;55.578;12.968;2023-03-17T00:01:11;5.30;1.00
34135;DHT22;20410;55.578;12.968;2023-03-17T00:03:39;5.40;1.00
34135;DHT22;20410;55.578;12.968;2023-03-17T00:06:18;5.40;1.00
34135;DHT22;20410;55.578;12.968;2023-03-17T00:08:45;5.30;1.00
34135;DHT22;20410;55.578;12.968;2023-03-17T00:11:13;5.30;1.00
34135;DHT22;20410;55.578;12.968;2023-03-17T00:13:39;5.30;1.00
34135;DHT22;20410;55.578;12.968;2023-03-17T00:16:12;5.30;1.00
34135;DHT22;20410;55.578;12.968;2023-03-17T00:18:40;5.30;1.00
34135;DHT22;20410;55.578;12.968;2023-03-17T00:21:10;5.30;1.00
34135;DHT22;20410;55.578;12.968;2023-03-17T00:23:36;5.30;1.00
34135;DHT22;20410;55.578;12.968;2023-03-17T00:26:02;5.30;1.00
34135;DHT22;20410;55.578;12.968;2023-03-17T00:28:28;5.30;1.00
34135;DHT22;20410;55.578;12.968;2023-03-17T00:30:58;5.30;1.00
34135;DHT22;20410;55.578;12.968;2023-03-17T00:33:29;5.30;1.00
34135;DHT22;20410;55.578;12.968;2023-03-17T00:35:57;5.30;1.00
34135;DHT22;20410;55.578;12.968;2023-03-17T00:38:23;5.30;1.00
34135;DHT22;20410;55.578;12.968;2023-03-17T00:40:50;5.30;1.00
34135;DHT22;20410;55.578;12.968;2023-03-17T00:43:16;5.30;1.00
34135;DHT22;20410;55.578;12.968;2023-03-17T00:45:42;5.30;1.00
34135;DHT22;20410;55.578;12.968;2023-03-17T00:48:14;5.30;1.00
34135;DHT22;20410;55.578;12.968;2023-03-17T00:50:40;5.30;1.00
34135;DHT22;20410;55.578;12.968;2023-03-17T00:53:13;5.30;1.00
34135;DHT22;20410;55.578;12.968;2023-03-17T00:55:40;5.30;1.00
34135;DHT22;20410;55.578;12.968;2023-03-17T00:58:17;5.30;1.00
34135;DHT22;20410;55.578;12.968;2023-03-17T01:00:43;5.30;1.00
34135;DHT22;20410;55.578;12.968;2023-03-17T01:03:11;5.40;1.00
34135;DHT22;20410;55.578;12.968;2023-03-17T01:05:38;5.30;1.00
34135;DHT22;20410;55.578;12.968;2023-03-17T01:08:05;5.30;1.00
34135;DHT22;20410;55.578;12.968;2023-03-17T01:10:30;5.30;1.00
34135;DHT22;20410;55.578;12.968;2023-03-17T01:12:57;5.30;1.00
34135;DHT22;20410;55.578;12.968;2023-03-17T01:15:27;5.30;1.00
34135;DHT22;20410;55.578;12.968;2023-03-17T01:17:54;5.30;1.00
34135;DHT22;20410;55.578;12.968;2023-03-17T01:20:27;5.30;1.00
34135;DHT22;20410;55.578;12.968;2023-03-17T01:22:54;5.30;1.00
34135;DHT22;20410;55.578;12.968;2023-03-17T01:25:20;5.30;1.00
34135;DHT22;20410;55.578;12.968;2023-03-17T01:27:46;5.30;1.00
34135;DHT22;20410;55.578;12.968;2023-03-17T01:30:33;5.30;1.00
34135;DHT22;20410;55.578;12.968;2023-03-17T01:32:59;5.30;1.00
34135;DHT22;20410;55.578;12.968;2023-03-17T01:35:27;5.30;1.00
34135;DHT22;20410;55.578;12.968;2023-03-17T01:37:54;5.30;1.00
34135;DHT22;20410;55.578;12.968;2023-03-17T01:40:30;5.30;1.00
34135;DHT22;20410;55.578;12.968;2023-03-17T01:48:37;5.30;1.00
34135;DHT22;20410;55.578;12.968;2023-03-17T01:51:05;5.30;1.00
34135;DHT22;20410;55.578;12.968;2023-03-17T01:53:33;5.30;1.00
34135;DHT22;20410;55.578;12.968;2023-03-17T01:56:01;5.30;1.00
34135;DHT22;20410;55.578;12.968;2023-03-17T01:58:27;5.30;1.00
34135;DHT22;20410;55.578;12.968;2023-03-17T02:00:53;5.30;1.00
34135;DHT22;20410;55.578;12.968;2023-03-17T02:03:20;5.30;1.00
34135;DHT22;20410;55.578;12.968;2023-03-17T02:05:50;5.30;1.00
34135;DHT22;20410;55.578;12.968;2023-03-17T02:08:16;5.30;1.00
34135;DHT22;20410;55.578;12.968;2023-03-17T02:10:43;5.20;1.00
34135;DHT22;20410;55.578;12.968;2023-03-17T02:13:12;5.20;1.00
34135;DHT22;20410;55.578;12.968;2023-03-17T02:15:49;5.20;1.00
34135;DHT22;20410;55.578;12.968;2023-03-17T02:18:17;5.30;1.00
34135;DHT22;20410;55.578;12.968;2023-03-17T02:23:14;5.20;1.00
34135;DHT22;20410;55.578;12.968;2023-03-17T02:25:43;5.20;1.00
34135;DHT22;20410;55.578;12.968;2023-03-17T02:28:13;5.30;1.00
34135;DHT22;20410;55.578;12.968;2023-03-17T02:30:41;5.20;1.00
34135;DHT22;20410;55.578;12.968;2023-03-17T02:33:07;5.20;1.00
34135;DHT22;20410;55.578;12.968;2023-03-17T02:35:33;5.30;1.00
34135;DHT22;20410;55.578;12.968;2023-03-17T02:37:59;5.20;1.00
34135;DHT22;20410;55.578;12.968;2023-03-17T02:40:25;5.30;1.00
34135;DHT22;20410;55.578;12.968;2023-03-17T02:42:51;5.30;1.00
34135;DHT22;20410;55.578;12.968;2023-03-17T02:45:18;5.30;1.00
34135;DHT22;20410;55.578;12.968;2023-03-17T02:47:45;5.30;1.00
34135;DHT22;20410;55.578;12.968;2023-03-17T02:50:19;5.30;1.00
34135;DHT22;20410;55.578;12.968;2023-03-17T02:52:46;5.30;1.00
34135;DHT22;20410;55.578;12.968;2023-03-17T02:55:12;5.30;1.00
34135;DHT22;20410;55.578;12.968;2023-03-17T02:57:38;5.20;1.00
34135;DHT22;20410;55.578;12.968;2023-03-17T03:00:04;5.20;1.00
34135;DHT22;20410;55.578;12.968;2023-03-17T03:02:30;5.20;1.00
34135;DHT22;20410;55.578;12.968;2023-03-17T03:04:55;5.20;1.00
34135;DHT22;20410;55.578;12.968;2023-03-17T03:07:21;5.30;1.00
34135;DHT22;20410;55.578;12.968;2023-03-17T03:09:47;5.20;1.00
34135;DHT22;20410;55.578;12.968;2023-03-17T03:12:13;5.20;1.00
34135;DHT22;20410;55.578;12.968;2023-03-17T03:14:38;5.20;1.00
34135;DHT22;20410;55.578;12.968;2023-03-17T03:17:04;5.20;1.00
34135;DHT22;20410;55.578;12.968;2023-03-17T03:19:30;5.10;1.00
34135;DHT22;20410;55.578;12.968;2023-03-17T03:21:55;5.10;1.00
34135;DHT22;20410;55.578;12.968;2023-03-17T03:24:21;5.20;1.00
34135;DHT22;20410;55.578;12.968;2023-03-17T03:26:47;5.20;1.00
34135;DHT22;20410;55.578;12.968;2023-03-17T03:29:12;5.10;1.00
34135;DHT22;20410;55.578;12.968;2023-03-17T03:31:38;5.10;1.00
34135;DHT22;20410;55.578;12.968;2023-03-17T03:34:04;5.20;1.00
34135;DHT22;20410;55.578;12.968;2023-03-17T03:36:29;5.10;1.00
34135;DHT22;20410;55.578;12.968;2023-03-17T03:38:55;5.20;1.00
34135;DHT22;20410;55.578;12.968;2023-03-17T03:41:21;5.20;1.00
34135;DHT22;20410;55.578;12.968;2023-03-17T03:43:47;5.20;1.00
34135;DHT22;20410;55.578;12.968;2023-03-17T03:46:12;5.20;1.00
34135;DHT22;20410;55.578;12.968;2023-03-17T03:48:39;5.20;1.00
34135;DHT22;20410;55.578;12.968;2023-03-17T03:51:05;5.10;1.00
34135;DHT22;20410;55.578;12.968;2023-03-17T03:53:31;5.20;1.00
34135;DHT22;20410;55.578;12.968;2023-03-17T03:55:56;5.10;1.00
34135;DHT22;20410;55.578;12.968;2023-03-17T03:58:22;5.20;1.00
34135;DHT22;20410;55.578;12.968;2023-03-17T04:00:48;5.30;1.00
34135;DHT22;20410;55.578;12.968;2023-03-17T04:03:14;5.30;1.00
34135;DHT22;20410;55.578;12.968;2023-03-17T04:05:40;5.30;1.00
34135;DHT22;20410;55.578;12.968;2023-03-17T04:08:06;5.30;1.00
34135;DHT22;20410;55.578;12.968;2023-03-17T04:10:32;5.30;1.00
34135;DHT22;20410;55.578;12.968;2023-03-17T04:12:58;5.30;1.00
34135;DHT22;20410;55.578;12.968;2023-03-17T04:15:23;5.20;1.00
34135;DHT22;20410;55.578;12.968;2023-03-17T04:17:49;5.20;1.00
34135;DHT22;20410;55.578;12.968;2023-03-17T04:20:16;5.20;1.00
34135;DHT22;20410;55.578;12.968;2023-03-17T04:22:42;5.30;1.00
34135;DHT22;20410;55.578;12.968;2023-03-17T04:25:10;5.20;1.00
34135;DHT22;20410;55.578;12.968;2023-03-17T04:27:36;5.30;1.00
34135;DHT22;20410;55.578;12.968;2023-03-17T04:30:03;5.30;1.00
34135;DHT22;20410;55.578;12.968;2023-03-17T04:32:29;5.30;1.00
34135;DHT22;20410;55.578;12.968;2023-03-17T04:34:55;5.30;1.00
34135;DHT22;20410;55.578;12.968;2023-03-17T04:37:21;5.30;1.00
34135;DHT22;20410;55.578;12.968;2023-03-17T04:39:46;5.30;1.00
34135;DHT22;20410;55.578;12.968;2023-03-17T04:42:12;5.30;1.00
34135;DHT22;20410;55.578;12.968;2023-03-17T04:44:38;5.30;1.00
34135;DHT22;20410;55.578;12.968;2023-03-17T04:47:04;5.20;1.00
34135;DHT22;20410;55.578;12.968;2023-03-17T04:49:29;5.20;1.00
34135;DHT22;20410;55.578;12.968;2023-03-17T04:51:55;5.20;1.00
34135;DHT22;20410;55.578;12.968;2023-03-17T04:54:21;5.20;1.00
34135;DHT22;20410;55.578;12.968;2023-03-17T04:56:47;5.20;1.00
34135;DHT22;20410;55.578;12.968;2023-03-17T04:59:13;5.20;1.00
34135;DHT22;20410;55.578;12.968;2023-03-17T05:01:38;5.20;1.00
34135;DHT22;20410;55.578;12.968;2023-03-17T05:04:04;5.20;1.00
34135;DHT22;20410;55.578;12.968;2023-03-17T05:06:31;5.20;1.00
34135;DHT22;20410;55.578;12.968;2023-03-17T05:08:56;5.20;1.00
34135;DHT22;20410;55.578;12.968;2023-03-17T05:11:22;5.20;1.00
34135;DHT22;20410;55.578;12.968;2023-03-17T05:13:47;5.20;1.00
34135;DHT22;20410;55.578;12.968;2023-03-17T05:16:13;5.20;1.00
34135;DHT22;20410;55.578;12.968;2023-03-17T05:18:38;5.20;1.00
34135;DHT22;20410;55.578;12.968;2023-03-17T05:21:05;5.20;1.00
34135;DHT22;20410;55.578;12.968;2023-03-17T05:23:32;5.30;1.00
34135;DHT22;20410;55.578;12.968;2023-03-17T05:25:58;5.30;1.00
34135;DHT22;20410;55.578;12.968;2023-03-17T05:28:23;5.30;1.00
34135;DHT22;20410;55.578;12.968;2023-03-17T05:30:49;5.20;1.00
34135;DHT22;20410;55.578;12.968;2023-03-17T05:33:15;5.30;1.00
34135;DHT22;20410;55.578;12.968;2023-03-17T05:35:41;5.20;1.00
34135;DHT22;20410;55.578;12.968;2023-03-17T05:38:10;5.30;1.00
34135;DHT22;20410;55.578;12.968;2023-03-17T05:40:36;5.30;1.00
34135;DHT22;20410;55.578;12.968;2023-03-17T05:43:03;5.20;1.00
34135;DHT22;20410;55.578;12.968;2023-03-17T05:45:30;5.20;1.00
34135;DHT22;20410;55.578;12.968;2023-03-17T05:47:56;5.20;1.00
34135;DHT22;20410;55.578;12.968;2023-03-17T05:50:22;5.30;1.00
34135;DHT22;20410;55.578;12.968;2023-03-17T05:52:47;5.30;1.00
34135;DHT22;20410;55.578;12.968;2023-03-17T05:55:13;5.30;1.00
34135;DHT22;20410;55.578;12.968;2023-03-17T05:57:39;5.40;1.00
34135;DHT22;20410;55.578;12.968;2023-03-17T06:00:06;5.40;1.00
34135;DHT22;20410;55.578;12.968;2023-03-17T06:02:32;5.40;1.00
34135;DHT22;20410;55.578;12.968;2023-03-17T06:04:58;5.40;1.00
34135;DHT22;20410;55.578;12.968;2023-03-17T06:07:23;5.40;1.00
34135;DHT22;20410;55.578;12.968;2023-03-17T06:09:49;5.40;1.00
34135;DHT22;20410;55.578;12.968;2023-03-17T06:12:14;5.40;1.00
34135;DHT22;20410;55.578;12.968;2023-03-17T06:14:40;5.40;1.00
34135;DHT22;20410;55.578;12.968;2023-03-17T06:17:06;5.40;1.00
34135;DHT22;20410;55.578;12.968;2023-03-17T06:19:32;5.40;1.00
34135;DHT22;20410;55.578;12.968;2023-03-17T06:21:57;5.40;1.00
34135;DHT22;20410;55.578;12.968;2023-03-17T06:24:24;5.40;1.00
34135;DHT22;20410;55.578;12.968;2023-03-17T06:26:50;5.40;1.00
34135;DHT22;20410;55.578;12.968;2023-03-17T06:29:17;5.50;1.00
34135;DHT22;20410;55.578;12.968;2023-03-17T06:31:42;5.50;1.00
34135;DHT22;20410;55.578;12.968;2023-03-17T06:34:15;5.60;1.00
34135;DHT22;20410;55.578;12.968;2023-03-17T06:36:41;5.60;1.00
34135;DHT22;20410;55.578;12.968;2023-03-17T06:39:07;5.60;1.00
34135;DHT22;20410;55.578;12.968;2023-03-17T06:41:33;5.70;1.00
34135;DHT22;20410;55.578;12.968;2023-03-17T06:43:59;5.70;1.00
34135;DHT22;20410;55.578;12.968;2023-03-17T06:46:25;5.70;1.00
34135;DHT22;20410;55.578;12.968;2023-03-17T06:48:51;5.70;1.00
34135;DHT22;20410;55.578;12.968;2023-03-17T06:51:17;5.70;1.00
34135;DHT22;20410;55.578;12.968;2023-03-17T06:53:42;5.70;1.00
34135;DHT22;20410;55.578;12.968;2023-03-17T06:56:08;5.70;1.00
34135;DHT22;20410;55.578;12.968;2023-03-17T06:58:34;5.80;1.00
34135;DHT22;20410;55.578;12.968;2023-03-17T07:00:59;5.80;1.00
34135;DHT22;20410;55.578;12.968;2023-03-17T07:03:26;5.90;1.00
34135;DHT22;20410;55.578;12.968;2023-03-17T07:05:52;5.90;1.00
34135;DHT22;20410;55.578;12.968;2023-03-17T07:08:17;6.00;1.00
34135;DHT22;20410;55.578;12.968;2023-03-17T07:10:43;6.00;1.00
34135;DHT22;20410;55.578;12.968;2023-03-17T07:13:10;6.00;1.00
34135;DHT22;20410;55.578;12.968;2023-03-17T07:15:36;6.10;1.00
34135;DHT22;20410;55.578;12.968;2023-03-17T07:18:05;6.10;1.00
34135;DHT22;20410;55.578;12.968;2023-03-17T07:20:31;6.20;1.00
34135;DHT22;20410;55.578;12.968;2023-03-17T07:22:57;6.20;1.00
34135;DHT22;20410;55.578;12.968;2023-03-17T07:25:23;6.20;1.00
34135;DHT22;20410;55.578;12.968;2023-03-17T07:27:49;6.20;1.00
34135;DHT22;20410;55.578;12.968;2023-03-17T07:30:16;6.20;1.00
34135;DHT22;20410;55.578;12.968;2023-03-17T07:32:44;6.20;1.00
34135;DHT22;20410;55.578;12.968;2023-03-17T07:35:10;6.20;1.00
34135;DHT22;20410;55.578;12.968;2023-03-17T07:37:36;6.10;1.00
34135;DHT22;20410;55.578;12.968;2023-03-17T07:40:02;6.10;1.00
34135;DHT22;20410;55.578;12.968;2023-03-17T07:42:28;6.10;1.00
34135;DHT22;20410;55.578;12.968;2023-03-17T07:44:54;6.00;1.00
34135;DHT22;20410;55.578;12.968;2023-03-17T07:47:20;6.00;1.00
34135;DHT22;20410;55.578;12.968;2023-03-17T07:49:46;6.00;1.00
34135;DHT22;20410;55.578;12.968;2023-03-17T07:52:12;6.00;1.00
34135;DHT22;20410;55.578;12.968;2023-03-17T07:54:37;6.00;1.00
34135;DHT22;20410;55.578;12.968;2023-03-17T07:57:04;6.00;1.00
34135;DHT22;20410;55.578;12.968;2023-03-17T07:59:30;6.00;1.00
34135;DHT22;20410;55.578;12.968;2023-03-17T08:01:56;6.00;1.00
34135;DHT22;20410;55.578;12.968;2023-03-17T08:04:22;6.10;1.00
34135;DHT22;20410;55.578;12.968;2023-03-17T08:06:48;6.10;1.00
34135;DHT22;20410;55.578;12.968;2023-03-17T08:09:14;6.10;1.00
34135;DHT22;20410;55.578;12.968;2023-03-17T08:11:40;6.10;1.00
34135;DHT22;20410;55.578;12.968;2023-03-17T08:14:06;6.20;1.00
34135;DHT22;20410;55.578;12.968;2023-03-17T08:16:31;6.20;1.00
34135;DHT22;20410;55.578;12.968;2023-03-17T08:18:57;6.20;1.00
34135;DHT22;20410;55.578;12.968;2023-03-17T08:21:24;6.20;1.00
34135;DHT22;20410;55.578;12.968;2023-03-17T08:23:51;6.20;1.00
34135;DHT22;20410;55.578;12.968;2023-03-17T08:26:17;6.30;1.00
34135;DHT22;20410;55.578;12.968;2023-03-17T08:28:43;6.40;1.00
34135;DHT22;20410;55.578;12.968;2023-03-17T08:31:19;6.60;1.00
34135;DHT22;20410;55.578;12.968;2023-03-17T08:33:48;6.60;1.00
34135;DHT22;20410;55.578;12.968;2023-03-17T08:36:15;6.70;1.00
34135;DHT22;20410;55.578;12.968;2023-03-17T08:38:42;6.90;1.00
34135;DHT22;20410;55.578;12.968;2023-03-17T08:41:11;7.00;1.00
34135;DHT22;20410;55.578;12.968;2023-03-17T08:43:38;7.00;1.00
34135;DHT22;20410;55.578;12.968;2023-03-17T08:46:24;7.20;1.00
34135;DHT22;20410;55.578;12.968;2023-03-17T08:48:52;7.20;1.00
34135;DHT22;20410;55.578;12.968;2023-03-17T08:51:20;7.40;1.00
34135;DHT22;20410;55.578;12.968;2023-03-17T08:53:46;7.40;1.00
34135;DHT22;20410;55.578;12.968;2023-03-17T08:56:12;7.40;1.00
34135;DHT22;20410;55.578;12.968;2023-03-17T08:58:38;7.40;1.00
34135;DHT22;20410;55.578;12.968;2023-03-17T09:01:05;7.40;1.00
34135;DHT22;20410;55.578;12.968;2023-03-17T09:03:31;7.40;1.00
34135;DHT22;20410;55.578;12.968;2023-03-17T09:05:58;7.40;1.00
34135;DHT22;20410;55.578;12.968;2023-03-17T09:08:25;7.30;1.00
34135;DHT22;20410;55.578;12.968;2023-03-17T09:10:51;7.40;1.00
34135;DHT22;20410;55.578;12.968;2023-03-17T09:13:17;7.40;1.00
34135;DHT22;20410;55.578;12.968;2023-03-17T09:15:43;7.40;1.00
34135;DHT22;20410;55.578;12.968;2023-03-17T09:18:10;7.40;1.00
34135;DHT22;20410;55.578;12.968;2023-03-17T09:20:36;7.40;1.00
34135;DHT22;20410;55.578;12.968;2023-03-17T09:23:05;7.40;1.00
34135;DHT22;20410;55.578;12.968;2023-03-17T09:25:34;7.50;1.00
34135;DHT22;20410;55.578;12.968;2023-03-17T09:27:59;7.60;1.00
34135;DHT22;20410;55.578;12.968;2023-03-17T09:30:25;7.70;1.00
34135;DHT22;20410;55.578;12.968;2023-03-17T09:32:51;7.90;1.00
34135;DHT22;20410;55.578;12.968;2023-03-17T09:35:18;8.00;1.00
34135;DHT22;20410;55.578;12.968;2023-03-17T09:37:43;8.10;1.00
34135;DHT22;20410;55.578;12.968;2023-03-17T09:40:12;8.20;1.00
34135;DHT22;20410;55.578;12.968;2023-03-17T09:45:27;8.40;1.00
34135;DHT22;20410;55.578;12.968;2023-03-17T09:48:02;8.50;1.00
34135;DHT22;20410;55.578;12.968;2023-03-17T09:50:58;8.50;1.00
34135;DHT22;20410;55.578;12.968;2023-03-17T09:56:13;8.70;1.00
34135;DHT22;20410;55.578;12.968;2023-03-17T09:58:46;8.70;99.90
34135;DHT22;20410;55.578;12.968;2023-03-17T10:01:14;8.70;99.90
34135;DHT22;20410;55.578;12.968;2023-03-17T10:03:39;8.80;1.00
34135;DHT22;20410;55.578;12.968;2023-03-17T10:06:26;8.90;99.90
34135;DHT22;20410;55.578;12.968;2023-03-17T10:14:48;9.40;99.90
34135;DHT22;20410;55.578;12.968;2023-03-17T10:17:19;9.40;99.90
34135;DHT22;20410;55.578;12.968;2023-03-17T10:22:41;9.40;99.90
34135;DHT22;20410;55.578;12.968;2023-03-17T10:25:19;9.40;99.90
34135;DHT22;20410;55.578;12.968;2023-03-17T10:27:57;9.40;99.90
34135;DHT22;20410;55.578;12.968;2023-03-17T10:30:24;9.40;99.90
34135;DHT22;20410;55.578;12.968;2023-03-17T10:32:51;9.40;99.90
34135;DHT22;20410;55.578;12.968;2023-03-17T10:35:18;9.40;99.90
34135;DHT22;20410;55.578;12.968;2023-03-17T10:37:47;9.50;99.90
34135;DHT22;20410;55.578;12.968;2023-03-17T10:40:39;9.50;99.90
34135;DHT22;20410;55.578;12.968;2023-03-17T10:43:10;9.50;99.90
34135;DHT22;20410;55.578;12.968;2023-03-17T10:45:47;9.50;99.90
34135;DHT22;20410;55.578;12.968;2023-03-17T10:48:18;9.50;99.90
34135;DHT22;20410;55.578;12.968;2023-03-17T10:50:45;9.40;99.90
34135;DHT22;20410;55.578;12.968;2023-03-17T10:53:37;9.30;99.90
34135;DHT22;20410;55.578;12.968;2023-03-17T10:56:10;9.40;99.90
34135;DHT22;20410;55.578;12.968;2023-03-17T10:58:39;9.40;99.90
34135;DHT22;20410;55.578;12.968;2023-03-17T11:01:17;9.40;99.90
34135;DHT22;20410;55.578;12.968;2023-03-17T11:03:45;9.50;99.90
34135;DHT22;20410;55.578;12.968;2023-03-17T11:06:16;9.50;99.90
34135;DHT22;20410;55.578;12.968;2023-03-17T11:08:50;9.50;99.90
34135;DHT22;20410;55.578;12.968;2023-03-17T11:11:33;9.50;99.90
34135;DHT22;20410;55.578;12.968;2023-03-17T11:14:05;9.50;99.90
34135;DHT22;20410;55.578;12.968;2023-03-17T11:16:37;9.60;99.90
34135;DHT22;20410;55.578;12.968;2023-03-17T11:19:04;9.70;99.90
34135;DHT22;20410;55.578;12.968;2023-03-17T11:21:46;9.70;99.90
34135;DHT22;20410;55.578;12.968;2023-03-17T11:24:24;9.60;99.90
34135;DHT22;20410;55.578;12.968;2023-03-17T11:27:03;9.60;99.90
34135;DHT22;20410;55.578;12.968;2023-03-17T11:32:30;9.90;99.90
34135;DHT22;20410;55.578;12.968;2023-03-17T11:43:27;10.10;99.90
34135;DHT22;20410;55.578;12.968;2023-03-17T11:46:26;10.10;99.90
34135;DHT22;20410;55.578;12.968;2023-03-17T11:49:38;10.20;99.90
34135;DHT22;20410;55.578;12.968;2023-03-17T11:54:50;10.10;99.90
34135;DHT22;20410;55.578;12.968;2023-03-17T11:57:24;10.10;99.90
34135;DHT22;20410;55.578;12.968;2023-03-17T11:59:58;10.20;99.90
34135;DHT22;20410;55.578;12.968;2023-03-17T12:05:21;10.20;99.90
34135;DHT22;20410;55.578;12.968;2023-03-17T12:08:16;10.30;99.90
34135;DHT22;20410;55.578;12.968;2023-03-17T12:10:48;10.20;99.90
34135;DHT22;20410;55.578;12.968;2023-03-17T12:13:39;10.20;99.90
34135;DHT22;20410;55.578;12.968;2023-03-17T12:16:12;10.20;99.90
34135;DHT22;20410;55.578;12.968;2023-03-17T12:18:41;10.30;99.90
34135;DHT22;20410;55.578;12.968;2023-03-17T12:24:00;10.20;99.90
34135;DHT22;20410;55.578;12.968;2023-03-17T12:27:02;10.30;99.90
34135;DHT22;20410;55.578;12.968;2023-03-17T12:29:43;10.40;99.90
34135;DHT22;20410;55.578;12.968;2023-03-17T12:34:54;10.40;99.90
34135;DHT22;20410;55.578;12.968;2023-03-17T12:37:21;10.30;99.90
34135;DHT22;20410;55.578;12.968;2023-03-17T12:40:00;10.30;99.90
34135;DHT22;20410;55.578;12.968;2023-03-17T12:42:40;10.30;99.90
34135;DHT22;20410;55.578;12.968;2023-03-17T12:53:53;10.00;99.90
34135;DHT22;20410;55.578;12.968;2023-03-17T12:56:30;10.00;99.90
34135;DHT22;20410;55.578;12.968;2023-03-17T12:59:05;10.10;99.90
34135;DHT22;20410;55.578;12.968;2023-03-17T13:01:37;10.10;99.90
34135;DHT22;20410;55.578;12.968;2023-03-17T13:11:58;10.20;99.90
34135;DHT22;20410;55.578;12.968;2023-03-17T13:14:44;10.20;99.90
34135;DHT22;20410;55.578;12.968;2023-03-17T13:22:37;10.30;99.90
34135;DHT22;20410;55.578;12.968;2023-03-17T13:30:41;10.50;99.90
34135;DHT22;20410;55.578;12.968;2023-03-17T13:48:46;10.40;99.90
34135;DHT22;20410;55.578;12.968;2023-03-17T13:51:20;10.40;99.90
34135;DHT22;20410;55.578;12.968;2023-03-17T13:53:51;10.40;99.90
34135;DHT22;20410;55.578;12.968;2023-03-17T14:01:34;10.30;99.90
34135;DHT22;20410;55.578;12.968;2023-03-17T14:04:04;10.30;99.90
34135;DHT22;20410;55.578;12.968;2023-03-17T14:06:36;10.20;99.90
34135;DHT22;20410;55.578;12.968;2023-03-17T14:09:09;10.20;99.90
34135;DHT22;20410;55.578;12.968;2023-03-17T14:11:37;10.20;99.90
34135;DHT22;20410;55.578;12.968;2023-03-17T14:33:21;10.00;99.90
34135;DHT22;20410;55.578;12.968;2023-03-17T14:35:50;10.10;99.90
34135;DHT22;20410;55.578;12.968;2023-03-17T14:38:28;10.10;99.90
34135;DHT22;20410;55.578;12.968;2023-03-17T14:43:39;9.90;99.90
34135;DHT22;20410;55.578;12.968;2023-03-17T14:46:06;9.80;99.90
34135;DHT22;20410;55.578;12.968;2023-03-17T14:48:39;9.70;1.00
34135;DHT22;20410;55.578;12.968;2023-03-17T14:53:53;9.60;1.00
34135;DHT22;20410;55.578;12.968;2023-03-17T14:56:30;9.60;1.00
34135;DHT22;20410;55.578;12.968;2023-03-17T14:59:04;9.60;1.00
34135;DHT22;20410;55.578;12.968;2023-03-17T15:01:36;9.70;1.00
34135;DHT22;20410;55.578;12.968;2023-03-17T15:04:17;9.70;1.00
34135;DHT22;20410;55.578;12.968;2023-03-17T15:06:53;9.70;1.00
34135;DHT22;20410;55.578;12.968;2023-03-17T15:12:14;9.70;1.00
34135;DHT22;20410;55.578;12.968;2023-03-17T15:14:40;9.70;1.00
34135;DHT22;20410;55.578;12.968;2023-03-17T15:17:19;9.70;1.00
34135;DHT22;20410;55.578;12.968;2023-03-17T15:19:51;9.80;1.00
34135;DHT22;20410;55.578;12.968;2023-03-17T15:22:42;9.70;1.00
34135;DHT22;20410;55.578;12.968;2023-03-17T15:25:23;9.70;1.00
34135;DHT22;20410;55.578;12.968;2023-03-17T15:27:50;9.70;1.00
34135;DHT22;20410;55.578;12.968;2023-03-17T15:30:16;9.80;1.00
34135;DHT22;20410;55.578;12.968;2023-03-17T15:32:42;9.90;1.00
34135;DHT22;20410;55.578;12.968;2023-03-17T15:35:12;9.90;1.00
34135;DHT22;20410;55.578;12.968;2023-03-17T15:37:39;9.90;1.00
34135;DHT22;20410;55.578;12.968;2023-03-17T15:40:05;9.90;1.00
34135;DHT22;20410;55.578;12.968;2023-03-17T15:42:34;10.00;1.00
34135;DHT22;20410;55.578;12.968;2023-03-17T15:45:00;9.90;1.00
34135;DHT22;20410;55.578;12.968;2023-03-17T15:47:28;9.90;1.00
34135;DHT22;20410;55.578;12.968;2023-03-17T15:49:57;10.00;1.00
34135;DHT22;20410;55.578;12.968;2023-03-17T15:52:25;9.90;1.00
34135;DHT22;20410;55.578;12.968;2023-03-17T15:54:52;9.80;1.00
34135;DHT22;20410;55.578;12.968;2023-03-17T15:57:18;9.90;1.00
34135;DHT22;20410;55.578;12.968;2023-03-17T15:59:44;9.90;1.00
34135;DHT22;20410;55.578;12.968;2023-03-17T16:04:49;9.80;99.90
34135;DHT22;20410;55.578;12.968;2023-03-17T16:07:15;9.80;1.00
34135;DHT22;20410;55.578;12.968;2023-03-17T16:09:41;9.70;1.00
34135;DHT22;20410;55.578;12.968;2023-03-17T16:12:10;9.70;1.00
34135;DHT22;20410;55.578;12.968;2023-03-17T16:14:36;9.70;1.00
34135;DHT22;20410;55.578;12.968;2023-03-17T16:17:03;9.70;1.00
34135;DHT22;20410;55.578;12.968;2023-03-17T16:19:28;9.70;1.00
34135;DHT22;20410;55.578;12.968;2023-03-17T16:21:55;9.60;1.00
34135;DHT22;20410;55.578;12.968;2023-03-17T16:24:24;9.60;1.00
34135;DHT22;20410;55.578;12.968;2023-03-17T16:26:50;9.60;1.00
34135;DHT22;20410;55.578;12.968;2023-03-17T16:29:18;9.50;1.00
34135;DHT22;20410;55.578;12.968;2023-03-17T16:31:46;9.50;1.00
34135;DHT22;20410;55.578;12.968;2023-03-17T16:34:16;9.50;1.00
34135;DHT22;20410;55.578;12.968;2023-03-17T16:36:42;9.50;1.00
34135;DHT22;20410;55.578;12.968;2023-03-17T16:39:19;9.50;1.00
34135;DHT22;20410;55.578;12.968;2023-03-17T16:41:46;9.40;1.00
34135;DHT22;20410;55.578;12.968;2023-03-17T16:44:14;9.40;1.00
34135;DHT22;20410;55.578;12.968;2023-03-17T16:46:40;9.40;1.00
34135;DHT22;20410;55.578;12.968;2023-03-17T16:49:17;9.30;1.00
34135;DHT22;20410;55.578;12.968;2023-03-17T16:51:43;9.30;1.00
34135;DHT22;20410;55.578;12.968;2023-03-17T16:54:09;9.30;1.00
34135;DHT22;20410;55.578;12.968;2023-03-17T16:56:39;9.20;1.00
34135;DHT22;20410;55.578;12.968;2023-03-17T16:59:09;9.20;1.00
34135;DHT22;20410;55.578;12.968;2023-03-17T17:01:36;9.20;1.00
34135;DHT22;20410;55.578;12.968;2023-03-17T17:04:01;9.10;1.00
34135;DHT22;20410;55.578;12.968;2023-03-17T17:06:27;9.10;1.00
34135;DHT22;20410;55.578;12.968;2023-03-17T17:08:52;9.10;1.00
34135;DHT22;20410;55.578;12.968;2023-03-17T17:11:19;9.10;1.00
34135;DHT22;20410;55.578;12.968;2023-03-17T17:13:47;9.10;1.00
34135;DHT22;20410;55.578;12.968;2023-03-17T17:16:28;9.00;1.00
34135;DHT22;20410;55.578;12.968;2023-03-17T17:18:54;9.00;1.00
34135;DHT22;20410;55.578;12.968;2023-03-17T17:21:20;8.90;1.00
34135;DHT22;20410;55.578;12.968;2023-03-17T17:23:46;8.80;1.00
34135;DHT22;20410;55.578;12.968;2023-03-17T17:26:11;8.70;1.00
34135;DHT22;20410;55.578;12.968;2023-03-17T17:28:37;8.70;1.00
34135;DHT22;20410;55.578;12.968;2023-03-17T17:31:08;8.70;1.00
34135;DHT22;20410;55.578;12.968;2023-03-17T17:33:35;8.70;1.00
34135;DHT22;20410;55.578;12.968;2023-03-17T17:36:03;8.70;1.00
34135;DHT22;20410;55.578;12.968;2023-03-17T17:38:28;8.70;1.00
34135;DHT22;20410;55.578;12.968;2023-03-17T17:40:56;8.70;1.00
34135;DHT22;20410;55.578;12.968;2023-03-17T17:43:22;8.70;1.00
34135;DHT22;20410;55.578;12.968;2023-03-17T17:45:49;8.70;1.00
34135;DHT22;20410;55.578;12.968;2023-03-17T17:48:23;8.70;1.00
34135;DHT22;20410;55.578;12.968;2023-03-17T17:50:50;8.70;1.00
34135;DHT22;20410;55.578;12.968;2023-03-17T17:53:17;8.70;1.00
34135;DHT22;20410;55.578;12.968;2023-03-17T17:55:45;8.70;1.00